Time;durP1;ratioP1;P1;durP2;ratioP2;P2;SDS_P1;SDS_P2;PMS_P1;PMS_P2;Temp;Humidity;BMP_temperature;BMP_pressure;BME280_temperature;BME280_humidity;BME280_pressure;Samples;Min_cycle;Max_cycle;Signal;HPM_P1;HPM_P2
2023/02/07 09:33:23;;;;;;;10.03;4.70;;;2.90;99.90;;;;;;4934451;29;20579;-69
2023/02/07 09:35:50;;;;;;;13.27;5.13;;;2.80;99.90;;;;;;4937141;29;20201;-69
2023/02/07 09:38:19;;;;;;;13.43;4.00;;;2.80;99.90;;;;;;4933076;29;20264;-69
2023/02/07 09:40:49;;;;;;;12.33;5.03;;;2.70;99.90;;;;;;4919144;29;20206;-69
2023/02/07 09:43:29;;;;;;;12.13;3.97;;;2.80;99.90;;;;;;4930313;29;20200;-69
2023/02/07 09:45:58;;;;;;;10.30;4.80;;;2.70;99.90;;;;;;4919163;29;20209;-69
2023/02/07 09:48:36;;;;;;;13.73;4.70;;;2.60;99.90;;;;;;4919156;29;20233;-69
2023/02/07 09:51:05;;;;;;;17.10;5.13;;;2.60;99.90;;;;;;4919194;29;20229;-71
2023/02/07 09:53:42;;;;;;;11.10;4.67;;;2.50;99.90;;;;;;4918844;29;20215;-70
2023/02/07 09:56:29;;;;;;;12.83;5.43;;;2.40;99.90;;;;;;4919440;29;20201;-69
2023/02/07 09:59:01;;;;;;;13.67;4.40;;;2.50;99.90;;;;;;4896823;29;20234;-69
2023/02/07 10:01:34;;;;;;;9.60;4.13;;;2.50;99.90;;;;;;4900111;29;20677;-69
2023/02/07 10:04:12;;;;;;;8.90;4.00;;;2.50;99.90;;;;;;4897196;29;20214;-70
2023/02/07 10:06:41;;;;;;;14.10;3.90;;;2.40;99.90;;;;;;4897675;29;20214;-69
2023/02/07 10:09:16;;;;;;;9.77;4.03;;;2.40;99.90;;;;;;4898187;29;20700;-69
2023/02/07 10:11:50;;;;;;;5.77;3.27;;;2.40;99.90;;;;;;4897087;29;20214;-70
2023/02/07 10:14:28;;;;;;;12.03;4.87;;;2.40;99.90;;;;;;4896974;29;20206;-70
2023/02/07 10:17:11;;;;;;;8.43;4.10;;;2.50;99.90;;;;;;4906230;29;20236;-69
2023/02/07 10:19:51;;;;;;;7.53;3.93;;;2.60;99.90;;;;;;4931461;29;20703;-70
2023/02/07 10:22:25;;;;;;;9.13;3.50;;;2.70;99.90;;;;;;4937521;29;20208;-69
2023/02/07 10:25:19;;;;;;;10.93;3.50;;;2.70;99.90;;;;;;4937307;29;20210;-70
2023/02/07 10:27:59;;;;;;;7.87;3.73;;;2.80;99.90;;;;;;4932572;29;20231;-70
2023/02/07 10:30:28;;;;;;;9.77;4.43;;;2.80;99.90;;;;;;4927801;29;20212;-70
2023/02/07 10:33:00;;;;;;;8.80;4.10;;;2.70;99.90;;;;;;4926794;29;20211;-70
2023/02/07 10:35:33;;;;;;;9.57;3.90;;;2.80;99.90;;;;;;4918960;29;20213;-70
2023/02/07 10:38:01;;;;;;;6.87;2.83;;;3.00;99.90;;;;;;4918753;29;20245;-70
2023/02/07 10:40:34;;;;;;;9.97;3.57;;;3.10;99.90;;;;;;4917762;29;20205;-71
2023/02/07 10:43:04;;;;;;;10.50;3.70;;;3.30;99.90;;;;;;4918391;29;20214;-71
2023/02/07 10:45:31;;;;;;;9.53;3.80;;;3.30;99.90;;;;;;4917652;29;20205;-71
2023/02/07 10:47:58;;;;;;;6.80;3.53;;;3.30;99.90;;;;;;4917807;29;20239;-71
2023/02/07 10:50:27;;;;;;;8.07;3.30;;;3.30;99.90;;;;;;4918378;29;20207;-71
2023/02/07 10:52:57;;;;;;;8.10;4.00;;;3.40;99.90;;;;;;4918022;29;20688;-71
2023/02/07 10:55:37;;;;;;;13.67;3.50;;;3.50;99.90;;;;;;4918060;29;20214;-71
2023/02/07 10:58:04;;;;;;;9.37;3.47;;;3.70;99.90;;;;;;4917720;29;20337;-71
2023/02/07 11:00:32;;;;;;;4.90;3.07;;;3.80;99.90;;;;;;4917830;29;20212;-71
2023/02/07 11:03:03;;;;;;;6.67;3.73;;;3.70;99.90;;;;;;4917629;29;20216;-71
2023/02/07 11:05:39;;;;;;;8.40;3.10;;;3.70;99.90;;;;;;4917929;29;20248;-71
2023/02/07 11:08:21;;;;;;;6.07;2.50;;;3.80;99.90;;;;;;4917713;29;20240;-71
2023/02/07 11:10:50;;;;;;;9.40;2.93;;;3.80;99.90;;;;;;4917466;29;20221;-71
2023/02/07 11:13:18;;;;;;;5.70;3.40;;;3.90;99.90;;;;;;4917648;29;20672;-71
2023/02/07 11:15:53;;;;;;;6.00;2.43;;;3.90;99.90;;;;;;4917793;29;20210;-71
2023/02/07 11:18:36;;;;;;;7.40;2.13;;;3.80;99.90;;;;;;4917279;29;20248;-71
2023/02/07 11:21:05;;;;;;;6.83;2.30;;;4.10;99.90;;;;;;4917588;29;20214;-71
2023/02/07 11:23:33;;;;;;;11.83;2.53;;;4.20;99.90;;;;;;4917649;29;20237;-71
2023/02/07 11:26:04;;;;;;;5.20;2.43;;;4.20;99.90;;;;;;4917304;29;20300;-70
2023/02/07 11:28:32;;;;;;;5.33;2.10;;;4.20;99.90;;;;;;4917391;29;20588;-70
2023/02/07 11:31:02;;;;;;;3.47;1.80;;;4.20;99.90;;;;;;4918444;29;20293;-72
2023/02/07 11:33:32;;;;;;;4.77;2.23;;;4.30;99.90;;;;;;4934779;29;20303;-71
2023/02/07 11:36:21;;;;;;;3.87;1.80;;;4.40;99.90;;;;;;4935242;29;20217;-75
2023/02/07 11:38:52;;;;;;;5.90;2.20;;;4.50;99.90;;;;;;4935043;29;20326;-68
2023/02/07 11:41:22;;;;;;;5.90;2.37;;;4.60;99.90;;;;;;4921678;29;20209;-68
2023/02/07 11:43:57;;;;;;;4.80;2.00;;;4.50;99.90;;;;;;4934425;29;20215;-70
2023/02/07 11:46:33;;;;;;;5.50;2.30;;;4.50;99.90;;;;;;4934725;29;20212;-70
2023/02/07 11:49:00;;;;;;;3.80;2.17;;;4.60;99.90;;;;;;4930029;29;20799;-72
2023/02/07 11:51:31;;;;;;;4.73;2.63;;;4.70;99.90;;;;;;4913788;29;20220;-73
2023/02/07 11:54:01;;;;;;;5.13;2.50;;;4.80;99.90;;;;;;4915363;29;20251;-68
2023/02/07 11:56:33;;;;;;;5.17;2.80;;;4.90;99.90;;;;;;4915408;29;20220;-72
2023/02/07 11:59:03;;;;;;;4.53;2.30;;;4.80;99.90;;;;;;4915398;29;20249;-71
2023/02/07 12:01:33;;;;;;;5.00;2.13;;;5.10;99.90;;;;;;4915816;29;20210;-69
2023/02/07 12:04:03;;;;;;;6.93;1.90;;;5.30;99.90;;;;;;4915302;29;20209;-70
2023/02/07 12:06:37;;;;;;;4.57;1.90;;;5.00;99.90;;;;;;4914877;29;20683;-68
2023/02/07 12:09:12;;;;;;;2.80;1.93;;;5.10;99.90;;;;;;4915323;29;20237;-70
2023/02/07 12:11:42;;;;;;;4.30;2.63;;;5.20;99.90;;;;;;4915619;29;20219;-70
2023/02/07 12:14:17;;;;;;;4.50;2.10;;;5.00;99.90;;;;;;4916016;29;20214;-69
2023/02/07 12:16:49;;;;;;;4.13;2.27;;;5.10;99.90;;;;;;4915624;29;20209;-69
2023/02/07 12:19:21;;;;;;;7.07;2.30;;;5.00;99.90;;;;;;4915779;29;20247;-69
2023/02/07 12:21:57;;;;;;;7.77;2.63;;;5.00;99.90;;;;;;4915649;29;20206;-68
2023/02/07 12:24:30;;;;;;;3.37;2.17;;;5.20;99.90;;;;;;4915576;29;20300;-70
2023/02/07 12:27:02;;;;;;;5.27;2.40;;;5.20;99.90;;;;;;4915470;29;20213;-69
2023/02/07 12:29:41;;;;;;;5.57;1.87;;;5.30;99.90;;;;;;4915073;29;20229;-69
2023/02/07 12:32:15;;;;;;;5.70;2.50;;;5.50;99.90;;;;;;4915123;29;20218;-68
2023/02/07 12:34:48;;;;;;;4.60;2.50;;;5.80;99.90;;;;;;4915452;29;20205;-68
2023/02/07 12:37:21;;;;;;;8.07;2.13;;;6.10;99.90;;;;;;4917530;29;20216;-69
2023/02/07 12:39:56;;;;;;;3.57;1.80;;;5.90;99.90;;;;;;4915001;29;20577;-70
2023/02/07 12:42:36;;;;;;;8.87;2.10;;;5.80;99.90;;;;;;4915352;29;20209;-71
2023/02/07 12:45:04;;;;;;;4.27;1.80;;;5.70;99.90;;;;;;4915776;29;20213;-69
2023/02/07 12:47:43;;;;;;;4.10;1.80;;;5.50;99.90;;;;;;4915174;29;20217;-69
2023/02/07 12:50:46;;;;;;;2.63;1.57;;;5.50;99.90;;;;;;4915315;29;20241;-70
2023/02/07 12:53:29;;;;;;;3.93;1.67;;;5.50;99.90;;;;;;4905453;29;20217;-69
2023/02/07 12:56:08;;;;;;;3.17;1.50;;;5.30;99.90;;;;;;4915027;29;20209;-71
2023/02/07 12:58:48;;;;;;;4.03;1.67;;;5.40;99.90;;;;;;4915164;29;20701;-72
2023/02/07 13:01:22;;;;;;;4.53;2.00;;;5.50;99.90;;;;;;4915015;29;20210;-71
2023/02/07 13:04:08;;;;;;;2.73;1.50;;;5.60;99.90;;;;;;4917985;29;20220;-71
2023/02/07 13:06:44;;;;;;;3.53;1.50;;;5.60;99.90;;;;;;4919543;29;20210;-71
2023/02/07 13:09:18;;;;;;;5.63;1.60;;;5.50;99.90;;;;;;4918991;29;20303;-71
2023/02/07 13:11:55;;;;;;;3.13;1.70;;;5.70;99.90;;;;;;4918865;29;20209;-71
2023/02/07 13:14:37;;;;;;;3.73;1.60;;;6.00;99.90;;;;;;4919791;29;20206;-70
2023/02/07 13:17:30;;;;;;;3.10;1.60;;;6.30;99.90;;;;;;4919681;29;20220;-70
2023/02/07 13:20:02;;;;;;;3.13;1.80;;;6.50;99.90;;;;;;4919556;29;20216;-69
2023/02/07 13:22:40;;;;;;;3.63;2.30;;;6.40;99.90;;;;;;4919264;29;20220;-69
2023/02/07 13:25:15;;;;;;;4.33;1.70;;;6.30;99.90;;;;;;4918684;29;20214;-69
2023/02/07 13:27:44;;;;;;;2.63;1.27;;;6.40;99.90;;;;;;4919017;29;20236;-69
2023/02/07 13:30:14;;;;;;;3.13;1.63;;;6.60;99.90;;;;;;4919517;29;20218;-69
2023/02/07 13:32:41;;;;;;;4.17;1.70;;;6.90;99.90;;;;;;4919245;29;20217;-69
2023/02/07 13:35:13;;;;;;;5.10;2.30;;;7.10;99.90;;;;;;4919197;29;20679;-69
2023/02/07 13:37:50;;;;;;;3.33;1.80;;;6.70;99.90;;;;;;4919091;29;20697;-69
2023/02/07 13:40:32;;;;;;;2.80;1.50;;;6.40;99.90;;;;;;4919142;29;20209;-69
2023/02/07 13:43:07;;;;;;;3.87;1.77;;;6.10;99.90;;;;;;4919279;29;20209;-70
2023/02/07 13:45:45;;;;;;;5.03;2.50;;;6.10;99.90;;;;;;4919105;29;20223;-69
2023/02/07 13:48:21;;;;;;;5.17;2.17;;;6.00;99.90;;;;;;4918940;29;20233;-70
2023/02/07 13:50:57;;;;;;;5.07;2.47;;;6.00;99.90;;;;;;4919019;29;20683;-70
2023/02/07 13:53:44;;;;;;;7.00;3.30;;;6.10;99.90;;;;;;4918829;29;20558;-70
2023/02/07 14:01:52;;;;;;;6.50;2.17;;;6.40;99.90;;;;;;4918831;29;20256;-70
2023/02/07 14:04:20;;;;;;;6.13;2.67;;;6.30;99.90;;;;;;4918906;29;20209;-69
2023/02/07 14:07:00;;;;;;;5.70;2.63;;;6.30;99.90;;;;;;4919020;29;20667;-69
2023/02/07 14:09:33;;;;;;;3.53;2.13;;;6.30;99.90;;;;;;4918784;29;20229;-69
2023/02/07 14:12:03;;;;;;;3.50;2.20;;;6.50;99.90;;;;;;4918542;29;20220;-69
2023/02/07 14:14:34;;;;;;;4.13;2.17;;;6.50;99.90;;;;;;4917931;29;20216;-69
2023/02/07 14:17:04;;;;;;;5.63;2.80;;;6.50;99.90;;;;;;4918553;29;20221;-70
2023/02/07 14:19:55;;;;;;;3.53;2.07;;;6.60;99.90;;;;;;4918625;29;20242;-70
2023/02/07 14:22:25;;;;;;;4.50;2.07;;;6.40;99.90;;;;;;4904384;29;20209;-70
2023/02/07 14:25:23;;;;;;;5.13;2.10;;;6.50;99.90;;;;;;4918572;29;20657;-70
2023/02/07 14:28:31;;;;;;;4.77;1.87;;;6.30;99.90;;;;;;4906704;29;20712;-70
2023/02/07 14:31:07;;;;;;;3.93;2.10;;;6.50;99.90;;;;;;4860030;29;20212;-70
2023/02/07 14:33:36;;;;;;;6.07;2.50;;;6.60;99.90;;;;;;4860049;29;20212;-70
2023/02/07 14:36:19;;;;;;;3.80;1.80;;;6.60;99.90;;;;;;4892959;29;20661;-70
2023/02/07 14:39:05;;;;;;;4.03;2.17;;;6.50;99.90;;;;;;4918061;29;20276;-70
2023/02/07 14:41:35;;;;;;;4.10;1.70;;;6.60;99.90;;;;;;4918316;29;20269;-70
2023/02/07 14:44:05;;;;;;;4.43;2.43;;;6.80;99.90;;;;;;4917819;29;20216;-70
2023/02/07 14:46:36;;;;;;;4.57;1.83;;;7.10;99.90;;;;;;4917795;29;20300;-70
2023/02/07 14:49:06;;;;;;;5.27;1.90;;;6.80;99.90;;;;;;4917572;29;20233;-70
2023/02/07 14:51:43;;;;;;;4.03;2.03;;;6.70;99.90;;;;;;4917145;29;20689;-71
2023/02/07 14:54:18;;;;;;;8.33;2.10;;;6.50;99.90;;;;;;4917357;29;20236;-70
2023/02/07 14:56:59;;;;;;;3.87;1.83;;;6.30;99.90;;;;;;4917296;29;20211;-70
2023/02/07 14:59:31;;;;;;;4.13;2.17;;;6.40;99.90;;;;;;4917199;29;20251;-70
2023/02/07 15:02:28;;;;;;;3.43;1.80;;;6.40;99.90;;;;;;4917006;29;20217;-70
2023/02/07 15:04:55;;;;;;;7.40;2.03;;;6.60;99.90;;;;;;4917456;29;20270;-70
2023/02/07 15:07:22;;;;;;;4.03;2.07;;;6.40;99.90;;;;;;4917174;29;20209;-70
2023/02/07 15:09:49;;;;;;;6.37;1.83;;;6.30;99.90;;;;;;4917169;29;20222;-70
2023/02/07 15:12:24;;;;;;;5.10;2.07;;;6.20;99.90;;;;;;4917699;29;20221;-70
2023/02/07 15:14:53;;;;;;;2.93;1.70;;;6.30;99.90;;;;;;4917747;29;20226;-69
2023/02/07 15:17:23;;;;;;;4.70;2.00;;;6.40;99.90;;;;;;4916978;29;20217;-70
2023/02/07 15:19:54;;;;;;;3.63;1.83;;;6.50;99.90;;;;;;4917191;29;20238;-70
2023/02/07 15:22:25;;;;;;;2.80;1.67;;;6.50;99.90;;;;;;4916993;29;20205;-70
2023/02/07 15:24:55;;;;;;;3.30;1.90;;;6.40;99.90;;;;;;4916809;29;20740;-70
2023/02/07 15:30:07;;;;;;;3.03;1.80;;;6.20;99.90;;;;;;4953384;29;20310;-73
2023/02/07 15:32:44;;;;;;;4.77;1.77;;;6.10;99.90;;;;;;4954674;28;20211;-72
2023/02/07 15:35:17;;;;;;;4.80;2.50;;;6.00;99.90;;;;;;4954827;29;20208;-73
2023/02/07 15:37:46;;;;;;;4.67;2.10;;;6.10;99.90;;;;;;4954858;28;20318;-74
2023/02/07 15:40:16;;;;;;;4.07;2.27;;;6.20;99.90;;;;;;4954652;29;20235;-73
2023/02/07 15:42:51;;;;;;;2.50;1.40;;;6.10;99.90;;;;;;4954928;29;20204;-73
2023/02/07 15:45:26;;;;;;;3.93;2.30;;;6.00;99.90;;;;;;4954662;29;20309;-73
2023/02/07 15:48:05;;;;;;;5.27;2.13;;;5.90;99.90;;;;;;4954386;29;20235;-73
2023/02/07 15:50:34;;;;;;;6.80;1.53;;;5.90;99.90;;;;;;4954495;28;20238;-74
2023/02/07 15:53:05;;;;;;;4.87;1.90;;;5.90;99.90;;;;;;4954500;29;20212;-73
2023/02/07 15:55:34;;;;;;;4.63;2.33;;;5.90;99.90;;;;;;4954842;28;20208;-73
2023/02/07 15:58:01;;;;;;;4.03;1.90;;;5.90;99.90;;;;;;4954865;29;20751;-73
2023/02/07 16:00:30;;;;;;;5.20;2.37;;;5.80;99.90;;;;;;4954951;29;20208;-73
2023/02/07 16:03:01;;;;;;;4.63;2.20;;;5.80;99.90;;;;;;4954685;29;20227;-73
2023/02/07 16:05:30;;;;;;;4.53;1.80;;;5.70;99.90;;;;;;4954256;29;20307;-74
2023/02/07 16:07:58;;;;;;;3.90;1.87;;;5.70;99.90;;;;;;4954250;29;20718;-73
2023/02/07 16:10:37;;;;;;;4.37;2.10;;;5.70;99.90;;;;;;4954487;29;20208;-73
2023/02/07 16:13:16;;;;;;;4.50;2.20;;;5.80;99.90;;;;;;4954641;29;20263;-74
2023/02/07 16:15:54;;;;;;;4.03;2.00;;;5.80;99.90;;;;;;4954596;29;20211;-73
2023/02/07 16:18:36;;;;;;;2.77;1.80;;;5.70;99.90;;;;;;4954117;29;20231;-73
2023/02/07 16:21:05;;;;;;;4.27;2.30;;;5.70;99.90;;;;;;4954501;29;20663;-73
2023/02/07 16:23:32;;;;;;;4.23;2.10;;;5.80;99.90;;;;;;4954610;29;20263;-74
2023/02/07 16:26:01;;;;;;;5.40;2.10;;;5.80;99.90;;;;;;4954520;29;20579;-73
2023/02/07 16:28:28;;;;;;;5.13;2.67;;;5.80;99.90;;;;;;4954404;28;20235;-73
2023/02/07 16:30:55;;;;;;;4.77;2.83;;;5.80;99.90;;;;;;4953950;29;20212;-73
2023/02/07 16:33:22;;;;;;;3.77;2.30;;;5.70;99.90;;;;;;4954157;29;20216;-73
2023/02/07 16:35:50;;;;;;;4.30;2.27;;;5.50;99.90;;;;;;4954155;29;20212;-73
2023/02/07 16:38:17;;;;;;;7.40;2.33;;;5.50;99.90;;;;;;4955209;28;20235;-73
2023/02/07 16:40:43;;;;;;;5.23;2.43;;;5.40;99.90;;;;;;4958184;29;20204;-73
2023/02/07 16:43:27;;;;;;;9.07;2.60;;;5.30;99.90;;;;;;4958286;29;20219;-73
2023/02/07 16:45:54;;;;;;;5.27;2.30;;;5.20;99.90;;;;;;4958099;29;20679;-74
2023/02/07 16:48:20;;;;;;;4.07;2.20;;;5.10;99.90;;;;;;4957872;29;20587;-74
2023/02/07 16:50:47;;;;;;;5.43;2.57;;;5.10;99.90;;;;;;4950328;29;20226;-73
2023/02/07 16:53:15;;;;;;;5.77;2.37;;;5.10;99.90;;;;;;4942225;29;20220;-72
2023/02/07 16:55:43;;;;;;;5.10;2.30;;;5.00;99.90;;;;;;4938920;29;20209;-73
2023/02/07 16:58:20;;;;;;;3.60;2.80;;;4.90;99.90;;;;;;4953515;29;20235;-72
2023/02/07 17:00:46;;;;;;;4.07;1.83;;;4.80;99.90;;;;;;4952082;29;20209;-72
2023/02/07 17:03:15;;;;;;;3.33;1.73;;;4.70;99.90;;;;;;4938345;29;20208;-72
2023/02/07 17:05:41;;;;;;;3.27;1.87;;;4.50;99.90;;;;;;4938388;29;20215;-73
2023/02/07 17:08:20;;;;;;;4.03;1.97;;;4.40;99.90;;;;;;4938135;29;20228;-73
2023/02/07 17:10:50;;;;;;;4.83;1.93;;;4.30;99.90;;;;;;4938252;29;20216;-72
2023/02/07 17:13:18;;;;;;;7.77;2.00;;;4.10;99.90;;;;;;4937914;29;20209;-73
2023/02/07 17:15:45;;;;;;;5.30;2.13;;;4.00;99.90;;;;;;4938253;29;20216;-73
2023/02/07 17:18:13;;;;;;;4.00;1.90;;;3.90;99.90;;;;;;4935138;29;20344;-72
2023/02/07 17:20:40;;;;;;;4.20;2.20;;;3.80;99.90;;;;;;4936794;29;20259;-72
2023/02/07 17:23:07;;;;;;;4.83;2.37;;;3.70;99.90;;;;;;4934052;29;20213;-75
2023/02/07 17:25:35;;;;;;;6.53;2.30;;;3.60;99.90;;;;;;4940823;29;20217;-74
2023/02/07 17:28:02;;;;;;;8.60;2.07;;;3.50;99.90;;;;;;4936697;29;20240;-75
2023/02/07 17:30:34;;;;;;;3.80;2.07;;;3.50;99.90;;;;;;4947995;29;20200;-75
2023/02/07 17:33:01;;;;;;;3.23;1.80;;;3.50;99.90;;;;;;4954671;29;20203;-74
2023/02/07 17:35:28;;;;;;;4.63;1.90;;;3.40;99.90;;;;;;4936668;29;20291;-72
2023/02/07 17:37:55;;;;;;;6.17;2.30;;;3.30;99.90;;;;;;4936443;29;20239;-74
2023/02/07 17:40:28;;;;;;;6.90;2.43;;;3.20;99.90;;;;;;4936677;29;20236;-73
2023/02/07 17:42:57;;;;;;;4.53;2.27;;;3.10;99.90;;;;;;4949784;29;20242;-72
2023/02/07 17:45:25;;;;;;;3.23;1.80;;;3.00;99.90;;;;;;4937029;29;20205;-71
2023/02/07 17:47:52;;;;;;;4.70;1.80;;;2.80;99.90;;;;;;4937402;29;20261;-73
2023/02/07 17:50:22;;;;;;;4.27;2.23;;;2.80;99.90;;;;;;4937216;29;20213;-74
2023/02/07 17:52:48;;;;;;;7.27;2.90;;;2.70;99.90;;;;;;4937395;29;20553;-73
2023/02/07 17:55:16;;;;;;;4.83;2.57;;;2.70;99.90;;;;;;4937066;29;20220;-73
2023/02/07 17:57:43;;;;;;;5.97;2.97;;;2.60;99.90;;;;;;4937609;29;20225;-73
2023/02/07 18:00:18;;;;;;;9.43;2.47;;;2.50;99.90;;;;;;4937413;29;20244;-73
2023/02/07 18:02:44;;;;;;;5.07;2.30;;;2.50;99.90;;;;;;4937432;29;20223;-73
2023/02/07 18:05:11;;;;;;;8.13;2.50;;;2.40;99.90;;;;;;4937000;29;20219;-73
2023/02/07 18:07:38;;;;;;;6.40;3.20;;;2.30;99.90;;;;;;4937172;29;20236;-73
2023/02/07 18:10:08;;;;;;;8.23;2.50;;;2.30;99.90;;;;;;4937245;29;20205;-73
2023/02/07 18:12:35;;;;;;;4.63;2.70;;;2.20;99.90;;;;;;4937126;29;20572;-73
2023/02/07 18:15:02;;;;;;;7.77;2.60;;;2.10;99.90;;;;;;4936865;29;20208;-72
2023/02/07 18:17:30;;;;;;;8.23;2.93;;;2.10;99.90;;;;;;4936726;29;20656;-75
2023/02/07 18:19:57;;;;;;;8.87;3.63;;;2.00;99.90;;;;;;4954319;29;20234;-75
2023/02/07 18:22:24;;;;;;;5.80;3.30;;;2.00;99.90;;;;;;4944796;29;20208;-73
2023/02/07 18:24:51;;;;;;;10.80;3.60;;;1.90;99.90;;;;;;4936842;29;20212;-73
2023/02/07 18:27:18;;;;;;;8.23;3.57;;;1.90;99.90;;;;;;4937026;29;20209;-72
2023/02/07 18:29:45;;;;;;;8.53;3.80;;;1.90;99.90;;;;;;4937392;29;20241;-73
2023/02/07 18:32:12;;;;;;;9.73;3.93;;;1.80;99.90;;;;;;4937288;29;20205;-73
2023/02/07 18:34:43;;;;;;;15.40;4.47;;;1.80;99.90;;;;;;4941961;29;20287;-73
2023/02/07 18:37:10;;;;;;;14.73;6.43;;;1.80;99.90;;;;;;4956057;28;20211;-73
2023/02/07 18:39:37;;;;;;;12.37;6.80;;;1.70;99.90;;;;;;4942260;28;20269;-73
2023/02/07 18:42:04;;;;;;;16.87;7.13;;;1.70;99.90;;;;;;4937154;29;20213;-75
2023/02/07 18:44:31;;;;;;;23.37;7.93;;;1.60;99.90;;;;;;4936462;29;20213;-74
2023/02/07 18:46:57;;;;;;;23.23;7.27;;;1.60;99.90;;;;;;4942603;29;20204;-73
2023/02/07 18:49:26;;;;;;;16.57;7.53;;;1.60;99.90;;;;;;4943551;29;20572;-73
2023/02/07 18:51:54;;;;;;;13.83;6.77;;;1.50;99.90;;;;;;4936558;29;20208;-74
2023/02/07 18:54:21;;;;;;;14.83;7.17;;;1.40;99.90;;;;;;4936445;29;20215;-73
2023/02/07 18:56:51;;;;;;;21.17;7.23;;;1.50;99.90;;;;;;4936053;29;20563;-74
2023/02/07 18:59:18;;;;;;;14.53;7.07;;;1.50;99.90;;;;;;4935528;29;20276;-74
2023/02/07 19:01:47;;;;;;;16.03;7.07;;;1.50;99.90;;;;;;4936137;29;20215;-74
2023/02/07 19:04:14;;;;;;;16.83;7.23;;;1.60;99.90;;;;;;4936569;29;20208;-73
2023/02/07 19:06:41;;;;;;;19.73;7.53;;;1.40;99.90;;;;;;4936463;29;20217;-75
2023/02/07 19:09:10;;;;;;;14.07;6.30;;;1.40;99.90;;;;;;4936050;29;20229;-73
2023/02/07 19:11:39;;;;;;;10.73;5.40;;;1.50;99.90;;;;;;4936352;29;20212;-74
2023/02/07 19:14:12;;;;;;;13.23;5.87;;;1.40;99.90;;;;;;4935742;29;20212;-74
2023/02/07 19:16:39;;;;;;;16.93;6.90;;;1.30;99.90;;;;;;4936338;29;20208;-74
2023/02/07 19:19:06;;;;;;;13.67;6.87;;;1.20;99.90;;;;;;4935916;29;20284;-73
2023/02/07 19:21:33;;;;;;;17.07;8.17;;;1.30;99.90;;;;;;4936311;29;20211;-74
2023/02/07 19:24:04;;;;;;;14.07;6.63;;;1.20;99.90;;;;;;4946572;29;20204;-73
2023/02/07 19:26:33;;;;;;;13.73;7.17;;;1.30;99.90;;;;;;4943680;29;20215;-74
2023/02/07 19:29:01;;;;;;;13.70;6.53;;;1.20;99.90;;;;;;4935995;29;20738;-72
2023/02/07 19:31:28;;;;;;;14.43;7.33;;;1.20;99.90;;;;;;4935054;29;20220;-72
2023/02/07 19:33:56;;;;;;;21.73;7.87;;;1.20;99.90;;;;;;4934194;29;20212;-74
2023/02/07 19:36:24;;;;;;;15.77;7.07;;;1.20;99.90;;;;;;4932695;29;20604;-74
2023/02/07 19:38:52;;;;;;;13.83;7.27;;;1.20;99.90;;;;;;4932247;29;20224;-74
2023/02/07 19:41:20;;;;;;;16.07;6.53;;;1.10;99.90;;;;;;4935215;29;20708;-74
2023/02/07 19:43:48;;;;;;;17.90;7.90;;;1.10;99.90;;;;;;4933839;29;20219;-73
2023/02/07 19:46:14;;;;;;;20.60;8.57;;;1.00;99.90;;;;;;4935214;29;20220;-74
2023/02/07 19:48:43;;;;;;;19.43;8.47;;;0.90;99.90;;;;;;4935459;29;20584;-74
2023/02/07 19:51:12;;;;;;;19.37;9.07;;;0.80;99.90;;;;;;4935702;29;20216;-74
2023/02/07 19:53:41;;;;;;;18.20;8.87;;;0.80;99.90;;;;;;4935441;29;20219;-74
2023/02/07 19:56:09;;;;;;;17.07;7.80;;;0.80;99.90;;;;;;4935650;29;20235;-74
2023/02/07 19:58:38;;;;;;;14.87;7.60;;;0.80;99.90;;;;;;4935632;29;20722;-73
2023/02/07 20:01:07;;;;;;;15.50;7.97;;;0.80;99.90;;;;;;4935592;29;20730;-72
2023/02/07 20:03:34;;;;;;;18.13;8.10;;;0.90;99.90;;;;;;4935631;29;20220;-71
2023/02/07 20:06:03;;;;;;;19.43;8.53;;;1.00;99.90;;;;;;4935509;29;20676;-74
2023/02/07 20:08:32;;;;;;;16.13;7.80;;;0.90;99.90;;;;;;4935267;29;20240;-73
2023/02/07 20:11:03;;;;;;;14.97;7.33;;;0.90;99.90;;;;;;4935742;29;20228;-74
2023/02/07 20:13:32;;;;;;;15.37;7.47;;;0.80;99.90;;;;;;4934871;29;20209;-73
2023/02/07 20:15:59;;;;;;;17.90;8.83;;;0.80;99.90;;;;;;4935236;29;20213;-72
2023/02/07 20:18:27;;;;;;;19.73;8.80;;;0.80;99.90;;;;;;4934962;29;20229;-73
2023/02/07 20:20:54;;;;;;;21.83;7.80;;;0.70;99.90;;;;;;4935592;29;20236;-74
2023/02/07 20:23:21;;;;;;;16.87;7.60;;;0.70;99.90;;;;;;4935757;29;20219;-73
2023/02/07 20:25:48;;;;;;;18.27;8.00;;;0.70;99.90;;;;;;4935392;29;20217;-73
2023/02/07 20:28:16;;;;;;;22.27;8.63;;;0.70;99.90;;;;;;4935420;29;20243;-74
2023/02/07 20:30:45;;;;;;;15.57;8.07;;;0.60;99.90;;;;;;4935467;29;20600;-75
2023/02/07 20:33:12;;;;;;;18.83;8.97;;;0.60;99.90;;;;;;4935299;29;20237;-74
2023/02/07 20:35:40;;;;;;;13.83;7.10;;;0.50;99.90;;;;;;4935542;29;20215;-74
2023/02/07 20:38:07;;;;;;;19.43;7.60;;;0.40;99.90;;;;;;4935359;29;20228;-73
2023/02/07 20:40:33;;;;;;;16.60;7.90;;;0.50;99.90;;;;;;4935185;29;20244;-73
2023/02/07 20:43:00;;;;;;;18.23;8.37;;;0.60;99.90;;;;;;4934748;29;20234;-74
2023/02/07 20:45:27;;;;;;;20.13;9.20;;;0.50;99.90;;;;;;4935004;29;20219;-73
2023/02/07 20:47:54;;;;;;;17.70;8.57;;;0.50;99.90;;;;;;4934848;29;20233;-74
2023/02/07 20:50:20;;;;;;;17.30;7.90;;;0.50;99.90;;;;;;4935457;29;20224;-74
2023/02/07 20:52:49;;;;;;;22.30;8.37;;;0.40;99.90;;;;;;4935290;29;20572;-74
2023/02/07 20:55:15;;;;;;;19.13;8.70;;;0.40;99.90;;;;;;4934728;29;20205;-74
2023/02/07 20:57:42;;;;;;;16.83;7.90;;;0.40;99.90;;;;;;4934460;29;20584;-73
2023/02/07 21:00:10;;;;;;;26.60;9.07;;;0.40;99.90;;;;;;4934095;29;20320;-73
2023/02/07 21:02:37;;;;;;;25.97;8.87;;;0.30;99.90;;;;;;4934279;29;20201;-72
2023/02/07 21:05:04;;;;;;;23.17;9.57;;;0.20;99.90;;;;;;4934365;29;20208;-73
2023/02/07 21:07:31;;;;;;;17.37;8.50;;;0.20;99.90;;;;;;4934858;29;20236;-72
2023/02/07 21:09:59;;;;;;;23.73;8.57;;;0.20;99.90;;;;;;4934887;29;20212;-74
2023/02/07 21:12:26;;;;;;;20.73;8.77;;;0.30;99.90;;;;;;4934798;29;20571;-70
2023/02/07 21:14:53;;;;;;;23.00;8.97;;;0.30;99.90;;;;;;4934854;29;20664;-73
2023/02/07 21:17:19;;;;;;;18.97;8.50;;;0.20;99.90;;;;;;4934939;29;20232;-74
2023/02/07 21:19:46;;;;;;;18.33;7.83;;;0.20;99.90;;;;;;4934703;29;20211;-74
2023/02/07 21:22:13;;;;;;;19.97;9.10;;;0.20;99.90;;;;;;4934485;29;20224;-73
2023/02/07 21:24:40;;;;;;;24.40;9.23;;;0.10;99.90;;;;;;4935955;29;20216;-73
2023/02/07 21:27:08;;;;;;;23.13;9.17;;;0.10;99.90;;;;;;4938045;29;20212;-73
2023/02/07 21:29:35;;;;;;;17.83;8.37;;;0.10;99.90;;;;;;4938400;29;20240;-73
2023/02/07 21:32:02;;;;;;;17.07;8.57;;;0.10;99.90;;;;;;4938766;29;20624;-73
2023/02/07 21:34:28;;;;;;;19.70;7.80;;;0.10;99.90;;;;;;4938158;29;20221;-71
2023/02/07 21:36:55;;;;;;;19.37;8.07;;;0.20;99.90;;;;;;4938081;29;20209;-74
2023/02/07 21:39:23;;;;;;;17.20;10.13;;;0.20;99.90;;;;;;4937872;29;20587;-74
2023/02/07 21:41:50;;;;;;;19.80;9.53;;;0.20;99.90;;;;;;4937977;29;20232;-73
2023/02/07 21:44:19;;;;;;;22.40;9.00;;;0.30;99.90;;;;;;4938034;29;20205;-72
2023/02/07 21:46:47;;;;;;;16.50;7.97;;;0.30;99.90;;;;;;4937744;29;20219;-72
2023/02/07 21:49:15;;;;;;;15.97;7.70;;;0.20;99.90;;;;;;4937672;29;20235;-72
2023/02/07 21:51:43;;;;;;;16.70;8.20;;;0.00;99.90;;;;;;4937131;29;20580;-73
2023/02/07 21:54:10;;;;;;;15.47;7.53;;;0.00;99.90;;;;;;4936996;29;20271;-73
2023/02/07 21:56:39;;;;;;;15.53;8.20;;;0.00;99.90;;;;;;4936742;29;20205;-72
2023/02/07 21:59:08;;;;;;;15.47;8.30;;;0.00;99.90;;;;;;4937249;29;20228;-74
2023/02/07 22:01:36;;;;;;;18.10;7.80;;;0.00;99.90;;;;;;4937496;29;20566;-72
2023/02/07 22:04:05;;;;;;;17.70;8.10;;;-0.10;99.90;;;;;;4937522;29;20620;-72
2023/02/07 22:06:32;;;;;;;20.07;8.00;;;-0.10;99.90;;;;;;4937561;29;20212;-74
2023/02/07 22:09:03;;;;;;;12.67;6.73;;;-0.10;99.90;;;;;;4937157;29;20229;-72
2023/02/07 22:11:32;;;;;;;14.43;7.73;;;0.00;99.90;;;;;;4937376;29;20209;-73
2023/02/07 22:14:00;;;;;;;19.83;7.43;;;0.00;99.90;;;;;;4937327;29;20220;-72
2023/02/07 22:16:28;;;;;;;15.10;7.50;;;0.00;99.90;;;;;;4936934;29;20220;-72
